createdAt,value
2023-03-03T00:01:44.027Z,0.58
2023-03-03T00:05:43.571Z,213.89
2023-03-03T00:09:43.236Z,213.89
2023-03-03T00:13:43.625Z,213.89
2023-03-03T00:17:43.908Z,0.57
2023-03-03T00:21:43.996Z,0.57
2023-03-03T00:25:43.583Z,0.57
2023-03-03T00:29:43.782Z,209.81
2023-03-03T00:33:43.112Z,209.81
2023-03-03T00:37:42.970Z,209.81
2023-03-03T00:41:43.294Z,209.81
2023-03-03T00:45:43.136Z,205.77
2023-03-03T00:49:43.106Z,205.77
2023-03-03T00:53:43.029Z,205.77
2023-03-03T00:57:43.298Z,209.81
2023-03-03T01:01:47.688Z,209.81
2023-03-03T01:05:43.417Z,209.81
2023-03-03T01:09:42.884Z,209.81
2023-03-03T01:13:42.996Z,209.81
2023-03-03T01:17:43.705Z,209.81
2023-03-03T01:21:43.381Z,0.57
2023-03-03T01:25:45.499Z,213.89
2023-03-03T01:29:43.561Z,213.89
2023-03-03T01:33:43.912Z,213.89
2023-03-03T01:37:43.669Z,0.57
2023-03-03T01:41:43.701Z,0.57
2023-03-03T01:45:42.896Z,0.58
2023-03-03T01:49:42.790Z,0.58
2023-03-03T01:53:43.264Z,0.57
2023-03-03T01:57:43.111Z,0.57
2023-03-03T02:01:48.190Z,0.57
2023-03-03T02:05:42.770Z,209.81
2023-03-03T02:09:42.904Z,0.58
2023-03-03T02:13:43.262Z,0.58
2023-03-03T02:17:43.204Z,213.89
2023-03-03T02:21:43.460Z,0.58
2023-03-03T02:25:43.442Z,0.58
2023-03-03T02:29:43.384Z,209.81
2023-03-03T02:33:43.993Z,0.57
2023-03-03T02:37:43.542Z,0.57
2023-03-03T02:41:43.699Z,0.57
2023-03-03T02:45:43.773Z,0.57
2023-03-03T02:49:43.681Z,0.57
2023-03-03T02:53:43.323Z,209.81
2023-03-03T02:57:43.672Z,209.81
2023-03-03T03:01:47.681Z,209.81
2023-03-03T03:05:43.593Z,205.77
2023-03-03T03:09:43.375Z,209.81
2023-03-03T03:13:43.281Z,209.81
2023-03-03T03:17:44.011Z,0.57
2023-03-03T03:21:44.758Z,0.57
2023-03-03T03:25:42.829Z,0.56
2023-03-03T03:29:43.730Z,205.77
2023-03-03T03:33:43.997Z,205.77
2023-03-03T03:37:43.762Z,0.55
2023-03-03T03:41:42.743Z,0.56
2023-03-03T03:45:43.008Z,0.56
2023-03-03T03:49:43.564Z,0.56
2023-03-03T03:53:42.722Z,205.77
2023-03-03T03:57:42.877Z,205.77
2023-03-03T04:01:47.302Z,205.77
2023-03-03T04:05:43.249Z,205.77
2023-03-03T04:09:43.585Z,205.77
2023-03-03T04:13:43.638Z,205.77
2023-03-03T04:17:43.838Z,205.77
2023-03-03T04:21:42.839Z,205.77
2023-03-03T04:25:42.863Z,205.77
2023-03-03T04:29:46.234Z,205.77
2023-03-03T04:33:43.191Z,205.77
2023-03-03T04:37:43.525Z,205.77
2023-03-03T04:41:43.452Z,205.77
2023-03-03T04:45:43.872Z,205.77
2023-03-03T04:49:46.224Z,205.77
2023-03-03T04:53:43.087Z,205.77
2023-03-03T04:57:42.904Z,205.77
2023-03-03T05:01:44.744Z,205.77
2023-03-03T05:05:43.477Z,1767.1
2023-03-03T05:09:43.125Z,3.9
2023-03-03T05:13:43.567Z,3.69
2023-03-03T05:17:43.574Z,2.31
2023-03-03T05:21:43.754Z,2.31
2023-03-03T05:25:43.755Z,2.31
2023-03-03T05:29:43.782Z,2.31
2023-03-03T05:33:43.106Z,2.31
2023-03-03T05:37:42.846Z,2.31
2023-03-03T05:41:43.534Z,2.31
2023-03-03T05:45:43.929Z,2.31
2023-03-03T05:49:43.172Z,2.31
2023-03-03T05:53:43.088Z,2.31
2023-03-03T05:57:43.399Z,2.31
2023-03-03T06:01:46.726Z,2.31
2023-03-03T06:05:43.907Z,2.31
2023-03-03T06:09:44.152Z,2.31
2023-03-03T06:13:43.134Z,2.31
2023-03-03T06:17:44.034Z,2.31
2023-03-03T06:21:43.458Z,2.31
2023-03-03T06:25:43.247Z,2936.48
2023-03-03T06:29:42.772Z,1694.33
2023-03-03T06:33:43.750Z,1694.33
2023-03-03T06:37:45.559Z,1694.33
2023-03-03T06:41:42.879Z,1694.33
2023-03-03T06:45:43.082Z,1694.33
2023-03-03T06:49:43.835Z,1694.33
2023-03-03T06:53:43.491Z,1694.33
2023-03-03T06:57:43.549Z,1694.33
2023-03-03T07:01:50.411Z,1694.33
2023-03-03T07:05:43.604Z,1694.33
2023-03-03T07:09:43.676Z,1694.33
2023-03-03T07:13:43.713Z,1694.33
2023-03-03T07:17:44.136Z,1694.33
2023-03-03T07:21:43.753Z,1694.33
2023-03-03T07:25:43.502Z,1694.33
2023-03-03T07:29:43.555Z,1694.33
2023-03-03T07:33:43.477Z,1694.33
2023-03-03T07:37:43.409Z,1694.33
2023-03-03T07:41:43.137Z,1694.33
2023-03-03T07:45:43.335Z,1694.33
2023-03-03T07:49:43.164Z,1694.33
2023-03-03T07:53:43.370Z,1694.33
2023-03-03T07:57:43.038Z,1694.33
2023-03-03T08:01:46.692Z,1694.33
2023-03-03T08:05:45.398Z,1694.33
2023-03-03T08:09:43.532Z,1694.33
2023-03-03T08:13:43.880Z,1694.33
2023-03-03T08:17:46.846Z,1694.33
2023-03-03T08:21:43.482Z,1694.33
2023-03-03T08:25:46.140Z,1694.33
2023-03-03T08:29:43.564Z,1694.33
2023-03-03T08:33:44.367Z,1694.33
2023-03-03T08:37:43.918Z,23.66
2023-03-03T08:41:43.236Z,23.66
2023-03-03T08:45:43.048Z,3350.42
2023-03-03T08:49:44.998Z,1606.7
2023-03-03T08:53:43.062Z,1086.9
2023-03-03T08:57:43.406Z,1049.23
2023-03-03T09:01:48.699Z,2.17
2023-03-03T09:05:43.933Z,2.17
2023-03-03T09:09:43.281Z,677.29
2023-03-03T09:13:43.395Z,1.62
2023-03-03T09:17:43.463Z,1.62
2023-03-03T09:21:43.376Z,551.59
2023-03-03T09:25:43.371Z,1.37
2023-03-03T09:29:43.409Z,1.37
2023-03-03T09:33:44.262Z,477.54
2023-03-03T09:37:48.905Z,1.23
2023-03-03T09:41:43.654Z,1.23
2023-03-03T09:45:43.630Z,1.18
2023-03-03T09:49:43.732Z,417.04
2023-03-03T09:53:43.667Z,417.04
2023-03-03T09:57:43.540Z,1.09
2023-03-03T10:01:48.167Z,1.06
2023-03-03T10:05:43.404Z,1.06
2023-03-03T10:09:43.796Z,379.77
2023-03-03T10:13:43.123Z,373.78
2023-03-03T10:17:44.072Z,373.78
2023-03-03T10:21:58.801Z,373.78
2023-03-03T10:25:43.027Z,379.77
2023-03-03T10:29:45.181Z,379.77
2023-03-03T10:33:46.660Z,1.03
2023-03-03T10:37:49.928Z,1.11
2023-03-03T10:41:43.181Z,1.11
2023-03-03T10:45:44.141Z,436.58
2023-03-03T10:49:46.342Z,449.95
2023-03-03T10:53:44.113Z,449.95
2023-03-03T10:58:00.310Z,1.09
2023-03-03T11:01:49.403Z,0.96
2023-03-03T11:05:44.050Z,0.96
2023-03-03T11:09:43.124Z,0.87
2023-03-03T11:13:43.739Z,0.83
2023-03-03T11:17:44.005Z,0.83
2023-03-03T11:21:43.870Z,296.56
2023-03-03T11:25:44.746Z,0.79
2023-03-03T11:29:43.224Z,0.79
2023-03-03T11:33:43.305Z,0.82
2023-03-03T11:37:43.368Z,0.8
2023-03-03T11:41:43.259Z,0.8
2023-03-03T11:45:43.642Z,301.68
2023-03-03T11:49:43.687Z,306.87
2023-03-03T11:53:43.879Z,306.87
2023-03-03T11:57:43.639Z,312.11
2023-03-03T12:01:43.250Z,312.11
2023-03-03T12:05:43.250Z,312.11
2023-03-03T12:09:43.381Z,317.41
2023-03-03T12:13:43.218Z,322.77
2023-03-03T12:17:43.762Z,322.77
2023-03-03T12:21:43.812Z,0.89
2023-03-03T12:25:46.656Z,328.19
2023-03-03T12:29:43.267Z,328.19
2023-03-03T12:33:44.674Z,0.92
2023-03-03T12:37:42.933Z,0.92
2023-03-03T12:41:43.893Z,0.92
2023-03-03T12:45:43.164Z,0.93
2023-03-03T12:50:06.630Z,344.82
2023-03-03T12:53:44.144Z,344.82
2023-03-03T12:57:43.489Z,350.49
2023-03-03T13:01:49.001Z,350.49
2023-03-03T13:05:45.642Z,350.49
2023-03-03T13:09:43.391Z,339.22
2023-03-03T13:13:43.026Z,0.9
2023-03-03T13:18:00.886Z,0.9
2023-03-03T13:21:43.207Z,333.67
2023-03-03T13:25:43.657Z,339.22
2023-03-03T13:29:43.469Z,339.22
2023-03-03T13:33:44.146Z,344.82
2023-03-03T13:37:43.780Z,362.01
2023-03-03T13:41:42.903Z,362.01
2023-03-03T13:45:43.719Z,362.01
2023-03-03T13:49:43.290Z,362.01
2023-03-03T13:53:43.435Z,362.01
2023-03-03T13:57:43.171Z,362.01
2023-03-03T14:01:47.212Z,362.01
2023-03-03T14:05:43.657Z,1.11
2023-03-03T14:09:43.174Z,1.11
2023-03-03T14:13:43.050Z,417.04
2023-03-03T14:17:45.473Z,417.04
2023-03-03T14:21:45.167Z,417.04
2023-03-03T14:25:43.161Z,423.49
2023-03-03T14:29:43.596Z,423.49
2023-03-03T14:34:02.477Z,1.15
2023-03-03T14:37:43.356Z,1.15
2023-03-03T14:41:43.105Z,1.15
2023-03-03T14:46:02.624Z,430
2023-03-03T14:49:43.215Z,430
2023-03-03T14:53:43.800Z,430
2023-03-03T14:57:43.323Z,423.49
2023-03-03T15:01:47.474Z,436.58
2023-03-03T15:05:43.712Z,436.58
2023-03-03T15:09:43.723Z,443.23
2023-03-03T15:13:43.549Z,1.2
2023-03-03T15:17:43.577Z,1.2
2023-03-03T15:21:43.415Z,436.58
2023-03-03T15:25:57.712Z,1.16
2023-03-03T15:29:43.269Z,1.16
2023-03-03T15:33:44.538Z,410.66
2023-03-03T15:37:43.680Z,1.04
2023-03-03T15:41:43.652Z,1.04
2023-03-03T15:45:43.652Z,373.78
2023-03-03T15:49:43.677Z,0.96
2023-03-03T15:53:45.174Z,0.96
2023-03-03T15:57:43.839Z,344.82
2023-03-03T16:01:47.852Z,0.84
2023-03-03T16:05:42.870Z,0.84
2023-03-03T16:09:44.690Z,0.83
2023-03-03T16:13:43.613Z,0.82
2023-03-03T16:17:43.808Z,0.82
2023-03-03T16:21:43.345Z,0.71
2023-03-03T16:25:43.117Z,0.76
2023-03-03T16:29:43.052Z,0.76
2023-03-03T16:33:43.569Z,291.5
2023-03-03T16:37:42.850Z,291.5
2023-03-03T16:41:43.191Z,291.5
2023-03-03T16:45:42.836Z,291.5
2023-03-03T16:49:43.626Z,291.5
2023-03-03T16:53:42.797Z,291.5
2023-03-03T16:57:42.929Z,291.5
2023-03-03T17:01:48.549Z,291.5
2023-03-03T17:05:46.129Z,291.5
2023-03-03T17:09:55.373Z,291.5
2023-03-03T17:13:43.076Z,291.5
2023-03-03T17:17:59.933Z,291.5
2023-03-03T17:21:42.980Z,291.5
2023-03-03T17:25:43.063Z,291.5
2023-03-03T17:29:43.086Z,291.5
2023-03-03T17:33:43.547Z,291.5
2023-03-03T17:37:43.285Z,291.5
2023-03-03T17:41:43.294Z,291.5
2023-03-03T17:45:43.625Z,291.5
2023-03-03T17:49:43.289Z,291.5
2023-03-03T17:53:43.450Z,291.5
2023-03-03T17:57:43.196Z,291.5
2023-03-03T18:01:49.687Z,291.5
2023-03-03T18:05:44.098Z,291.5
2023-03-03T18:09:59.148Z,291.5
2023-03-03T18:13:44.151Z,291.5
2023-03-03T18:17:53.996Z,291.5
2023-03-03T18:21:46.508Z,291.5
2023-03-03T18:25:43.329Z,291.5
2023-03-03T18:29:43.171Z,291.5
2023-03-03T18:33:43.471Z,291.5
2023-03-03T18:37:43.098Z,291.5
2023-03-03T18:41:43.410Z,291.5
2023-03-03T18:45:43.289Z,291.5
2023-03-03T18:49:45.237Z,291.5
2023-03-03T18:53:43.105Z,291.5
2023-03-03T18:57:43.353Z,291.5
2023-03-03T19:01:47.005Z,291.5
2023-03-03T19:05:43.416Z,291.5
2023-03-03T19:09:43.553Z,291.5
2023-03-03T19:13:42.992Z,291.5
2023-03-03T19:17:43.452Z,291.5
2023-03-03T19:21:43.059Z,291.5
2023-03-03T19:25:43.215Z,291.5
2023-03-03T19:29:43.244Z,291.5
2023-03-03T19:33:43.546Z,291.5
2023-03-03T19:37:43.337Z,291.5
2023-03-03T19:41:46.204Z,291.5
2023-03-03T19:45:43.364Z,291.5
2023-03-03T19:49:43.243Z,291.5
2023-03-03T19:53:43.515Z,291.5
2023-03-03T19:57:43.451Z,291.5
2023-03-03T20:01:49.511Z,291.5
2023-03-03T20:05:43.746Z,291.5
2023-03-03T20:09:43.727Z,291.5
2023-03-03T20:13:43.636Z,291.5
2023-03-03T20:17:43.539Z,291.5
2023-03-03T20:21:42.970Z,291.5
2023-03-03T20:25:43.199Z,291.5
2023-03-03T20:29:43.488Z,291.5
2023-03-03T20:33:43.859Z,291.5
2023-03-03T20:37:43.826Z,291.5
2023-03-03T20:41:43.361Z,291.5
2023-03-03T20:45:42.923Z,291.5
2023-03-03T20:49:42.738Z,291.5
2023-03-03T20:53:43.054Z,291.5
2023-03-03T20:57:43.097Z,291.5
2023-03-03T21:01:46.892Z,291.5
2023-03-03T21:05:42.914Z,291.5
2023-03-03T21:09:43.616Z,291.5
2023-03-03T21:13:43.116Z,291.5
2023-03-03T21:17:43.912Z,291.5
2023-03-03T21:21:43.971Z,291.5
2023-03-03T21:25:42.749Z,291.5
2023-03-03T21:29:42.972Z,291.5
2023-03-03T21:33:43.851Z,291.5
2023-03-03T21:37:43.058Z,291.5
2023-03-03T21:41:43.432Z,291.5
2023-03-03T21:45:43.339Z,291.5
2023-03-03T21:49:44.425Z,291.5
2023-03-03T21:53:43.510Z,291.5
2023-03-03T21:57:43.810Z,291.5
2023-03-03T22:01:49.761Z,291.5
2023-03-03T22:05:43.437Z,291.5
2023-03-03T22:09:43.259Z,291.5
2023-03-03T22:13:43.177Z,291.5
2023-03-03T22:17:43.683Z,291.5
2023-03-03T22:21:43.058Z,291.5
2023-03-03T22:25:43.482Z,291.5
2023-03-03T22:29:43.461Z,291.5
2023-03-03T22:33:44.125Z,291.5
2023-03-03T22:37:43.615Z,291.5
2023-03-03T22:41:43.745Z,291.5
2023-03-03T22:45:42.810Z,291.5
2023-03-03T22:49:42.877Z,291.5
2023-03-03T22:53:42.989Z,291.5
2023-03-03T22:57:42.927Z,291.5
2023-03-03T23:01:53.133Z,291.5
2023-03-03T23:05:43.904Z,291.5
2023-03-03T23:09:43.604Z,291.5
2023-03-03T23:13:43.513Z,291.5
2023-03-03T23:17:43.772Z,291.5
2023-03-03T23:21:43.712Z,291.5
2023-03-03T23:25:42.695Z,291.5
2023-03-03T23:29:42.696Z,291.5
2023-03-03T23:33:43.193Z,291.5
2023-03-03T23:37:43.199Z,291.5
2023-03-03T23:41:43.336Z,291.5
2023-03-03T23:45:43.620Z,291.5
2023-03-03T23:49:43.520Z,291.5
2023-03-03T23:53:43.667Z,291.5
2023-03-03T23:57:43.701Z,291.5
